Galesburg, Iowa
Current Conditions -  °F | °C
As of 5:35 AM on Saturday 20 Dec 2014 (Local Time) from KTNU Reporting Station
Haze Haze  
Wind Chill: -5°   Ceiling: 300
Heat Index: -1°   Visibility: 1.2mi
Dew Point: -1°   Wind: 8mph
Humidity: 100%   Direction: 160°SSE
Pressure: 30.17"   Gusts: NA
Location:  41.587°N, 93.0159°W
Report Text: KTNU 201135Z AUTO 16007KT 1 1/4SM BR OVC003 M01/M01 A3017 RMK AO2
Loading
Personal Weather Stations






























Interactive Weather Map New forecast layout! Learn more

10-Day Weather Forecast

Advertisements
Track Severe Weather on mobile